createdAt,value
2018-03-16T00:00:01.185Z,98279.00
2018-03-16T00:02:28.672Z,98283.87
2018-03-16T00:04:56.127Z,98293.30
2018-03-16T00:07:23.587Z,98299.23
2018-03-16T00:09:51.059Z,98293.44
2018-03-16T00:12:18.546Z,98302.46
2018-03-16T00:14:46.031Z,98311.36
2018-03-16T00:17:13.553Z,98323.61
2018-03-16T00:19:40.987Z,98319.84
2018-03-16T00:22:08.439Z,98323.73
2018-03-16T00:24:35.915Z,98322.80
2018-03-16T00:27:03.379Z,98328.59
2018-03-16T00:29:30.865Z,98332.39
2018-03-16T00:31:58.336Z,98334.14
2018-03-16T00:34:25.815Z,98332.80
2018-03-16T00:36:53.278Z,98330.92
2018-03-16T00:39:20.763Z,98339.00
2018-03-16T00:41:48.218Z,98330.09
2018-03-16T00:44:15.704Z,98334.52
2018-03-16T00:46:43.169Z,98340.47
2018-03-16T00:49:10.659Z,98334.92
2018-03-16T00:51:38.115Z,98340.31
2018-03-16T00:54:05.582Z,98334.80
2018-03-16T00:56:33.053Z,98332.27
2018-03-16T00:59:00.523Z,98328.06
2018-03-16T01:01:31.926Z,98329.28
2018-03-16T01:03:59.419Z,98329.28
2018-03-16T01:06:26.886Z,98321.84
2018-03-16T01:08:54.366Z,98324.78
2018-03-16T01:11:21.828Z,98328.93
2018-03-16T01:13:49.302Z,98328.26
2018-03-16T01:16:16.768Z,98329.20
2018-03-16T01:18:44.243Z,98324.45
2018-03-16T01:21:11.703Z,98328.69
2018-03-16T01:23:39.192Z,98330.13
2018-03-16T01:26:06.660Z,98334.93
2018-03-16T01:28:34.144Z,98334.59
2018-03-16T01:31:01.608Z,98325.27
2018-03-16T01:33:29.100Z,98334.42
2018-03-16T01:35:56.565Z,98329.86
2018-03-16T01:38:24.038Z,98328.50
2018-03-16T01:40:51.516Z,98325.49
2018-03-16T01:43:19.060Z,98329.61
2018-03-16T01:45:46.535Z,98327.70
2018-03-16T01:48:14.013Z,98325.30
2018-03-16T01:50:41.491Z,98326.69
2018-03-16T01:53:16.639Z,98329.12
2018-03-16T01:55:44.133Z,98322.38
2018-03-16T01:58:11.595Z,98324.02
2018-03-16T02:00:39.066Z,98333.05
2018-03-16T02:03:06.530Z,98329.52
2018-03-16T02:05:34.027Z,98325.88
2018-03-16T02:08:01.493Z,98323.73
2018-03-16T02:10:28.972Z,98321.19
2018-03-16T02:12:56.434Z,98318.86
2018-03-16T02:15:23.910Z,98313.23
2018-03-16T02:17:51.367Z,98316.73
2018-03-16T02:20:18.854Z,98312.02
2018-03-16T02:22:46.319Z,98306.92
2018-03-16T02:25:13.814Z,98311.67
2018-03-16T02:27:41.282Z,98313.47
2018-03-16T02:30:08.760Z,98306.33
2018-03-16T02:32:36.223Z,98308.37
2018-03-16T02:35:03.709Z,98303.95
2018-03-16T02:37:31.163Z,98308.94
2018-03-16T02:39:58.644Z,98309.63
2018-03-16T02:42:26.106Z,98312.72
2018-03-16T02:44:53.587Z,98312.87
2018-03-16T02:47:21.057Z,98317.02
2018-03-16T02:49:48.601Z,98312.33
2018-03-16T02:52:16.092Z,98312.32
2018-03-16T02:54:43.580Z,98316.63
2018-03-16T02:57:11.036Z,98322.67
2018-03-16T02:59:38.542Z,98318.80
2018-03-16T03:02:05.999Z,98320.66
2018-03-16T03:04:33.486Z,98322.67
2018-03-16T03:07:00.939Z,98327.93
2018-03-16T03:09:28.395Z,98329.16
2018-03-16T03:11:55.883Z,98333.73
2018-03-16T03:14:23.349Z,98337.62
2018-03-16T03:16:50.823Z,98341.64
2018-03-16T03:19:18.283Z,98347.59
2018-03-16T03:21:45.763Z,98351.34
2018-03-16T03:24:13.232Z,98351.08
2018-03-16T03:26:40.716Z,98355.41
2018-03-16T03:29:08.185Z,98357.69
2018-03-16T03:31:35.663Z,98355.52
2018-03-16T03:34:03.125Z,98354.58
2018-03-16T03:36:30.620Z,98366.55
2018-03-16T03:38:58.075Z,98369.66
2018-03-16T03:41:25.559Z,98370.47
2018-03-16T03:43:53.031Z,98370.31
2018-03-16T03:46:20.512Z,98373.30
2018-03-16T03:48:47.967Z,98377.86
2018-03-16T03:51:15.459Z,98380.96
2018-03-16T03:53:42.951Z,98376.80
2018-03-16T03:56:10.439Z,98382.18
2018-03-16T03:58:37.929Z,98390.26
2018-03-16T04:01:05.377Z,98398.19
2018-03-16T04:03:32.831Z,98393.61
2018-03-16T04:06:00.321Z,98391.61
2018-03-16T04:08:27.795Z,98390.11
2018-03-16T04:10:55.280Z,98385.55
2018-03-16T04:13:22.739Z,98389.17
2018-03-16T04:15:50.222Z,98389.55
2018-03-16T04:18:17.688Z,98396.29
2018-03-16T04:20:45.165Z,98390.65
2018-03-16T04:23:12.624Z,98396.57
2018-03-16T04:25:40.107Z,98381.47
2018-03-16T04:28:07.567Z,98388.73
2018-03-16T04:30:35.027Z,98387.95
2018-03-16T04:33:02.508Z,98393.34
2018-03-16T04:35:30.074Z,98396.16
2018-03-16T04:37:57.568Z,98398.05
2018-03-16T04:40:25.038Z,98403.02
2018-03-16T04:42:52.507Z,98404.40
2018-03-16T04:45:19.971Z,98406.69
2018-03-16T04:47:47.453Z,98406.41
2018-03-16T04:50:14.910Z,98408.97
2018-03-16T04:52:42.395Z,98411.92
2018-03-16T04:55:09.860Z,98413.14
2018-03-16T04:57:37.341Z,98416.89
2018-03-16T05:00:04.805Z,98420.41
2018-03-16T05:02:32.286Z,98424.73
2018-03-16T05:04:59.763Z,98421.88
2018-03-16T05:07:27.247Z,98425.39
2018-03-16T05:09:54.709Z,98431.44
2018-03-16T05:12:22.192Z,98427.94
2018-03-16T05:14:49.647Z,98432.80
2018-03-16T05:17:17.124Z,98432.92
2018-03-16T05:19:44.638Z,98440.47
2018-03-16T05:22:12.119Z,98441.95
2018-03-16T05:24:39.593Z,98435.48
2018-03-16T05:27:07.071Z,98444.11
2018-03-16T05:29:34.559Z,98446.39
2018-03-16T05:32:02.763Z,98448.28
2018-03-16T05:34:30.227Z,98449.22
2018-03-16T05:36:57.711Z,98452.98
2018-03-16T05:39:25.180Z,98448.66
2018-03-16T05:41:52.739Z,98461.59
2018-03-16T05:44:20.196Z,98455.14
2018-03-16T05:46:47.691Z,98465.64
2018-03-16T05:49:15.157Z,98467.64
2018-03-16T05:51:42.648Z,98464.02
2018-03-16T05:54:10.112Z,98471.03
2018-03-16T05:56:37.568Z,98473.06
2018-03-16T05:59:05.056Z,98471.31
2018-03-16T06:01:32.522Z,98476.30
2018-03-16T06:04:00.014Z,98476.83
2018-03-16T06:06:27.470Z,98473.86
2018-03-16T06:08:54.948Z,98470.75
2018-03-16T06:11:22.405Z,98468.34
2018-03-16T06:13:49.887Z,98473.86
2018-03-16T06:16:17.359Z,98470.22
2018-03-16T06:18:44.839Z,98469.81
2018-03-16T06:21:12.295Z,98473.06
2018-03-16T06:23:39.767Z,98478.18
2018-03-16T06:26:07.228Z,98467.39
2018-03-16T06:28:34.714Z,98474.80
2018-03-16T06:31:02.184Z,98474.92
2018-03-16T06:33:29.663Z,98478.02
2018-03-16T06:35:57.118Z,98474.52
2018-03-16T06:38:24.608Z,98479.91
2018-03-16T06:40:52.067Z,98481.00
2018-03-16T06:43:19.617Z,98477.77
2018-03-16T06:45:47.047Z,98483.70
2018-03-16T06:48:14.535Z,98481.00
2018-03-16T06:50:42.003Z,98491.91
2018-03-16T06:53:09.496Z,98486.67
2018-03-16T06:55:36.961Z,98495.70
2018-03-16T06:58:04.444Z,98498.24
2018-03-16T07:00:31.900Z,98501.34
2018-03-16T07:02:59.384Z,98500.41
2018-03-16T07:05:26.843Z,98494.45
2018-03-16T07:07:54.330Z,98502.29
2018-03-16T07:10:21.792Z,98510.09
2018-03-16T07:12:49.272Z,98509.69
2018-03-16T07:15:28.474Z,98514.79
2018-03-16T07:17:55.991Z,98520.68
2018-03-16T07:20:23.455Z,98520.55
2018-03-16T07:22:50.963Z,98527.66
2018-03-16T07:25:18.435Z,98532.94
2018-03-16T07:27:45.931Z,98532.36
2018-03-16T07:30:13.408Z,98532.76
2018-03-16T07:32:40.896Z,98537.61
2018-03-16T07:35:08.421Z,98531.11
2018-03-16T07:37:35.884Z,98536.73
2018-03-16T07:40:03.442Z,98544.92
2018-03-16T07:42:45.842Z,98545.89
2018-03-16T07:45:13.318Z,98549.27
2018-03-16T07:47:40.777Z,98559.11
2018-03-16T07:50:08.256Z,98558.03
2018-03-16T07:52:35.728Z,98554.21
2018-03-16T07:55:03.225Z,98562.31
2018-03-16T07:57:30.685Z,98563.68
2018-03-16T07:59:58.171Z,98568.67
2018-03-16T08:02:25.631Z,98574.36
2018-03-16T08:04:53.117Z,98578.14
2018-03-16T08:07:20.761Z,98575.30
2018-03-16T08:09:48.233Z,98578.92
2018-03-16T08:12:15.708Z,98582.39
2018-03-16T08:14:43.199Z,98587.97
2018-03-16T08:17:10.655Z,98583.63
2018-03-16T08:19:38.135Z,98594.34
2018-03-16T08:22:05.615Z,98598.70
2018-03-16T08:24:33.107Z,98600.48
2018-03-16T08:27:00.571Z,98596.30
2018-03-16T08:29:28.055Z,98594.22
2018-03-16T08:31:55.511Z,98598.16
2018-03-16T08:34:23.016Z,98597.77
2018-03-16T08:36:50.486Z,98599.31
2018-03-16T08:39:17.962Z,98599.16
2018-03-16T08:41:45.423Z,98603.05
2018-03-16T08:44:12.987Z,98605.58
2018-03-16T08:46:41.099Z,98605.97
2018-03-16T08:49:08.605Z,98605.21
2018-03-16T08:51:36.188Z,98613.11
2018-03-16T08:54:03.694Z,98613.28
2018-03-16T08:56:31.147Z,98615.23
2018-03-16T08:58:58.652Z,98610.34
2018-03-16T09:01:26.138Z,98618.54
2018-03-16T09:03:53.596Z,98613.21
2018-03-16T09:06:21.099Z,98616.80
2018-03-16T09:08:48.566Z,98623.25
2018-03-16T09:11:16.047Z,98618.05
2018-03-16T09:13:43.533Z,98629.20
2018-03-16T09:16:11.019Z,98619.81
2018-03-16T09:18:38.480Z,98623.98
2018-03-16T09:21:05.956Z,98623.51
2018-03-16T09:23:33.431Z,98625.72
2018-03-16T09:26:00.915Z,98624.44
2018-03-16T09:28:28.376Z,98625.77
2018-03-16T09:30:55.866Z,98625.52
2018-03-16T09:33:23.324Z,98631.86
2018-03-16T09:35:50.836Z,98628.30
2018-03-16T09:38:18.300Z,98631.48
2018-03-16T09:40:45.797Z,98630.92
2018-03-16T09:43:13.259Z,98630.66
2018-03-16T09:45:40.746Z,98614.03
2018-03-16T09:48:08.223Z,98634.05
2018-03-16T09:50:55.345Z,98642.36
2018-03-16T09:53:29.420Z,98639.11
2018-03-16T09:55:57.015Z,98639.36
2018-03-16T09:58:25.309Z,98633.88
2018-03-16T10:00:53.246Z,98644.96
2018-03-16T10:03:20.736Z,98646.06
2018-03-16T10:05:48.828Z,98642.16
2018-03-16T10:08:16.916Z,98647.54
2018-03-16T10:10:44.909Z,98653.29
2018-03-16T10:13:12.372Z,98646.55
2018-03-16T10:15:40.823Z,98648.11
2018-03-16T10:18:08.340Z,98646.13
2018-03-16T10:20:35.875Z,98651.33
2018-03-16T10:23:03.391Z,98651.52
2018-03-16T10:25:31.284Z,98657.36
2018-03-16T10:27:58.750Z,98659.70
2018-03-16T10:30:26.256Z,98659.48
2018-03-16T10:32:53.990Z,98660.09
2018-03-16T10:35:21.704Z,98660.52
2018-03-16T10:37:50.509Z,98667.18
2018-03-16T10:40:19.941Z,98665.44
2018-03-16T10:42:47.460Z,98671.34
2018-03-16T10:45:14.939Z,98670.36
2018-03-16T10:47:42.650Z,98674.84
2018-03-16T10:50:11.308Z,98672.89
2018-03-16T10:52:38.842Z,98677.86
2018-03-16T10:55:07.241Z,98678.02
2018-03-16T10:57:35.951Z,98685.49
2018-03-16T11:00:03.816Z,98684.19
2018-03-16T11:02:39.785Z,98685.50
2018-03-16T11:05:28.192Z,98689.59
2018-03-16T11:07:57.623Z,98686.97
2018-03-16T11:10:25.113Z,98688.44
2018-03-16T11:12:52.651Z,98686.48
2018-03-16T11:15:20.678Z,98687.24
2018-03-16T11:17:48.399Z,98687.62
2018-03-16T11:20:16.757Z,98691.92
2018-03-16T11:22:44.263Z,98694.81
2018-03-16T11:25:12.222Z,98692.45
2018-03-16T11:27:39.830Z,98693.42
2018-03-16T11:30:11.565Z,98694.20
2018-03-16T11:32:39.048Z,98691.59
2018-03-16T11:35:07.150Z,98698.75
2018-03-16T11:37:34.655Z,98693.09
2018-03-16T11:40:02.287Z,98695.84
2018-03-16T11:42:29.788Z,98689.95
2018-03-16T11:44:58.163Z,98692.78
2018-03-16T11:47:25.707Z,98694.38
2018-03-16T11:49:53.937Z,98695.44
2018-03-16T11:52:21.450Z,98696.53
2018-03-16T11:54:48.968Z,98698.69
2018-03-16T11:57:21.856Z,98701.23
2018-03-16T11:59:49.317Z,98699.77
2018-03-16T12:02:17.063Z,98709.94
2018-03-16T12:04:44.535Z,98704.20
2018-03-16T12:07:12.269Z,98712.77
2018-03-16T12:09:39.855Z,98710.92
2018-03-16T12:12:07.329Z,98712.76
2018-03-16T12:14:35.121Z,98710.42
2018-03-16T12:17:02.644Z,98711.88
2018-03-16T12:19:30.128Z,98711.51
2018-03-16T12:21:57.928Z,98702.38
2018-03-16T12:24:25.754Z,98703.66
2018-03-16T12:26:53.222Z,98711.62
2018-03-16T12:29:20.841Z,98712.84
2018-03-16T12:31:48.291Z,98712.39
2018-03-16T12:34:16.875Z,98717.12
2018-03-16T12:36:44.654Z,98719.58
2018-03-16T12:39:12.203Z,98716.09
2018-03-16T12:41:39.685Z,98719.14
2018-03-16T12:44:07.197Z,98714.42
2018-03-16T12:46:34.657Z,98720.09
2018-03-16T12:49:02.215Z,98712.72
2018-03-16T12:51:29.713Z,98710.17
2018-03-16T12:53:57.278Z,98714.38
2018-03-16T12:56:25.658Z,98714.29
2018-03-16T12:58:53.156Z,98720.12
2018-03-16T13:01:21.824Z,98710.98
2018-03-16T13:03:49.339Z,98712.47
2018-03-16T13:06:16.839Z,98713.90
2018-03-16T13:08:44.388Z,98723.45
2018-03-16T13:11:11.845Z,98717.12
2018-03-16T13:13:40.120Z,98722.97
2018-03-16T13:16:07.607Z,98723.21
2018-03-16T13:18:35.159Z,98726.45
2018-03-16T13:21:02.722Z,98726.23
2018-03-16T13:23:31.072Z,98721.94
2018-03-16T13:25:59.337Z,98724.30
2018-03-16T13:28:29.099Z,98728.78
2018-03-16T13:30:56.821Z,98725.19
2018-03-16T13:33:24.327Z,98720.03
2018-03-16T13:35:51.788Z,98728.43
2018-03-16T13:38:19.586Z,98732.45
2018-03-16T13:40:47.172Z,98726.28
2018-03-16T13:43:15.275Z,98735.59
2018-03-16T13:45:42.816Z,98728.00
2018-03-16T13:48:10.327Z,98726.27
2018-03-16T13:50:38.013Z,98728.08
2018-03-16T13:53:08.723Z,98725.23
2018-03-16T13:55:36.224Z,98728.94
2018-03-16T13:58:03.930Z,98724.32
2018-03-16T14:00:31.682Z,98719.01
2018-03-16T14:03:03.335Z,98718.20
2018-03-16T14:05:31.112Z,98727.93
2018-03-16T14:07:58.632Z,98723.30
2018-03-16T14:10:26.597Z,98722.09
2018-03-16T14:12:54.063Z,98722.51
2018-03-16T14:15:21.540Z,98724.70
2018-03-16T14:23:30.248Z,98717.87
2018-03-16T14:25:58.559Z,98721.74
2018-03-16T14:28:26.028Z,98727.75
2018-03-16T14:30:53.515Z,98731.92
2018-03-16T14:33:21.033Z,98723.70
2018-03-16T14:35:48.552Z,98722.81
2018-03-16T14:38:16.006Z,98725.89
2018-03-16T14:40:43.540Z,98732.78
2018-03-16T14:43:11.488Z,98731.23
2018-03-16T14:45:39.014Z,98735.22
2018-03-16T14:48:06.516Z,98734.84
2018-03-16T14:50:34.004Z,98738.58
2018-03-16T14:53:02.380Z,98735.28
2018-03-16T14:55:29.912Z,98730.77
2018-03-16T14:57:57.370Z,98734.28
2018-03-16T15:00:25.218Z,98734.20
2018-03-16T15:02:52.699Z,98737.55
2018-03-16T15:05:20.283Z,98739.73
2018-03-16T15:07:47.745Z,98736.81
2018-03-16T15:10:15.478Z,98741.11
2018-03-16T15:12:42.984Z,98746.41
2018-03-16T15:15:10.990Z,98752.92
2018-03-16T15:17:38.451Z,98745.88
2018-03-16T15:20:05.997Z,98755.03
2018-03-16T15:22:33.822Z,98747.27
2018-03-16T15:25:01.316Z,98741.81
2018-03-16T15:27:31.380Z,98738.70
2018-03-16T15:30:04.845Z,98748.75
2018-03-16T15:32:34.642Z,98739.62
2018-03-16T15:35:03.542Z,98734.50
2018-03-16T15:37:31.776Z,98738.77
2018-03-16T15:40:01.483Z,98741.34
2018-03-16T15:42:30.244Z,98747.00
2018-03-16T15:44:57.767Z,98744.62
2018-03-16T15:47:25.496Z,98742.42
2018-03-16T15:49:53.268Z,98749.25
2018-03-16T15:52:20.757Z,98748.62
2018-03-16T15:54:50.356Z,98752.62
2018-03-16T15:57:19.054Z,98746.46
2018-03-16T15:59:47.201Z,98748.48
2018-03-16T16:02:15.135Z,98744.81
2018-03-16T16:04:43.047Z,98746.83
2018-03-16T16:07:11.370Z,98746.06
2018-03-16T16:09:38.978Z,98745.73
2018-03-16T16:12:07.683Z,98745.12
2018-03-16T16:14:35.903Z,98749.38
2018-03-16T16:17:03.415Z,98763.50
2018-03-16T16:19:32.189Z,98759.97
2018-03-16T16:21:59.680Z,98761.28
2018-03-16T16:24:28.124Z,98756.09
2018-03-16T16:26:55.648Z,98762.45
2018-03-16T16:29:24.034Z,98764.48
2018-03-16T16:31:51.876Z,98763.29
2018-03-16T16:34:19.552Z,98770.57
2018-03-16T16:36:47.071Z,98774.87
2018-03-16T16:39:15.195Z,98773.08
2018-03-16T16:41:44.183Z,98772.15
2018-03-16T16:44:12.116Z,98776.30
2018-03-16T16:46:39.840Z,98770.55
2018-03-16T16:49:07.312Z,98776.48
2018-03-16T16:51:34.796Z,98783.19
2018-03-16T16:54:03.046Z,98786.42
2018-03-16T16:56:31.523Z,98785.08
2018-03-16T16:58:59.439Z,98800.26
2018-03-16T17:01:27.029Z,98795.67
2018-03-16T17:03:54.458Z,98808.11
2018-03-16T17:06:22.254Z,98812.42
2018-03-16T17:08:49.942Z,98812.41
2018-03-16T17:11:17.751Z,98820.13
2018-03-16T17:13:45.216Z,98824.14
2018-03-16T17:16:12.755Z,98824.14
2018-03-16T17:18:40.863Z,98823.86
2018-03-16T17:21:08.423Z,98837.08
2018-03-16T17:23:37.260Z,98832.11
2018-03-16T17:26:05.244Z,98837.09
2018-03-16T17:28:32.933Z,98845.20
2018-03-16T17:31:00.424Z,98844.65
2018-03-16T17:33:27.901Z,98846.94
2018-03-16T17:35:55.701Z,98844.89
2018-03-16T17:38:23.276Z,98855.52
2018-03-16T17:40:50.735Z,98845.26
2018-03-16T17:43:18.229Z,98858.05
2018-03-16T17:45:46.445Z,98855.05
2018-03-16T17:48:13.980Z,98863.98
2018-03-16T17:50:41.446Z,98865.72
2018-03-16T17:53:10.110Z,98872.48
2018-03-16T17:55:37.578Z,98871.73
2018-03-16T17:58:05.088Z,98877.83
2018-03-16T18:00:32.565Z,98880.87
2018-03-16T18:03:00.150Z,98893.70
2018-03-16T18:05:27.614Z,98889.95
2018-03-16T18:07:55.166Z,98895.82
2018-03-16T18:10:22.681Z,98903.93
2018-03-16T18:12:50.458Z,98902.84
2018-03-16T18:15:18.737Z,98905.33
2018-03-16T18:17:46.302Z,98909.66
2018-03-16T18:20:13.783Z,98909.19
2018-03-16T18:22:41.281Z,98904.13
2018-03-16T18:25:08.773Z,98909.89
2018-03-16T18:27:36.308Z,98910.91
2018-03-16T18:30:03.784Z,98916.25
2018-03-16T18:32:31.288Z,98911.84
2018-03-16T18:34:59.161Z,98910.80
2018-03-16T18:37:26.672Z,98909.84
2018-03-16T18:39:54.127Z,98926.23
2018-03-16T18:42:25.673Z,98923.89
2018-03-16T18:44:53.173Z,98920.89
2018-03-16T18:47:23.233Z,98921.01
2018-03-16T18:49:50.697Z,98923.30
2018-03-16T18:52:18.269Z,98922.48
2018-03-16T18:54:46.091Z,98921.98
2018-03-16T18:57:13.598Z,98925.94
2018-03-16T18:59:41.088Z,98931.28
2018-03-16T19:02:08.568Z,98928.56
2018-03-16T19:04:36.890Z,98933.72
2018-03-16T19:07:05.384Z,98929.53
2018-03-16T19:09:33.205Z,98927.10
2018-03-16T19:12:01.523Z,98931.78
2018-03-16T19:14:29.268Z,98930.09
2018-03-16T19:16:56.732Z,98925.32
2018-03-16T19:19:24.214Z,98930.12
2018-03-16T19:21:52.592Z,98928.25
2018-03-16T19:24:21.211Z,98927.98
2018-03-16T19:26:49.200Z,98925.84
2018-03-16T19:29:17.192Z,98928.71
2018-03-16T19:31:44.701Z,98926.41
2018-03-16T19:34:12.420Z,98937.73
2018-03-16T19:36:39.956Z,98934.83
2018-03-16T19:39:07.426Z,98935.13
2018-03-16T19:41:34.878Z,98934.41
2018-03-16T19:44:02.388Z,98933.29
2018-03-16T19:46:30.225Z,98945.22
2018-03-16T19:48:57.807Z,98938.17
2018-03-16T19:51:26.180Z,98944.64
2018-03-16T19:53:53.659Z,98940.16
2018-03-16T19:56:21.642Z,98941.84
2018-03-16T19:58:49.137Z,98944.53
2018-03-16T20:01:16.591Z,98951.19
2018-03-16T20:03:44.164Z,98947.86
2018-03-16T20:06:11.934Z,98950.06
2018-03-16T20:08:39.854Z,98952.30
2018-03-16T20:11:07.921Z,98956.67
2018-03-16T20:13:35.415Z,98954.13
2018-03-16T20:16:03.588Z,98964.25
2018-03-16T20:18:31.512Z,98966.86
2018-03-16T20:20:58.982Z,98959.09
2018-03-16T20:23:26.740Z,98963.91
2018-03-16T20:25:54.436Z,98961.23
2018-03-16T20:28:22.723Z,98970.94
2018-03-16T20:30:50.710Z,98975.64
2018-03-16T20:33:18.619Z,98972.77
2018-03-16T20:35:46.141Z,98972.91
2018-03-16T20:38:13.875Z,98973.55
2018-03-16T20:40:42.114Z,98974.61
2018-03-16T20:43:10.107Z,98978.55
2018-03-16T20:45:39.551Z,98984.33
2018-03-16T20:48:07.471Z,98977.31
2018-03-16T20:50:36.790Z,98980.95
2018-03-16T20:53:04.298Z,98985.13
2018-03-16T20:55:31.856Z,98981.78
2018-03-16T20:58:01.140Z,98988.86
2018-03-16T21:00:28.755Z,98993.22
2018-03-16T21:02:56.480Z,98996.31
2018-03-16T21:05:24.001Z,98998.98
2018-03-16T21:07:51.471Z,98999.73
2018-03-16T21:10:18.990Z,99001.12
2018-03-16T21:12:46.752Z,99003.59
2018-03-16T21:15:14.279Z,99001.98
2018-03-16T21:17:41.750Z,99007.98
2018-03-16T21:20:09.528Z,99012.11
2018-03-16T21:22:37.103Z,99007.67
2018-03-16T21:25:04.719Z,99004.58
2018-03-16T21:27:32.179Z,99006.55
2018-03-16T21:29:59.902Z,99008.35
2018-03-16T21:32:27.607Z,99008.77
2018-03-16T21:34:55.096Z,99006.08
2018-03-16T21:37:22.619Z,99006.44
2018-03-16T21:39:50.104Z,99005.20
2018-03-16T21:42:17.664Z,99004.69
2018-03-16T21:44:45.223Z,99006.84
2018-03-16T21:47:12.724Z,99020.22
2018-03-16T21:49:40.228Z,99017.69
2018-03-16T21:52:07.708Z,99010.83
2018-03-16T21:54:35.452Z,99014.34
2018-03-16T21:57:03.208Z,99011.91
2018-03-16T21:59:30.723Z,99013.81
2018-03-16T22:01:58.407Z,99012.53
2018-03-16T22:04:25.906Z,99003.75
2018-03-16T22:06:54.546Z,99008.50
2018-03-16T22:09:22.052Z,99001.32
2018-03-16T22:11:49.568Z,98997.86
2018-03-16T22:14:17.967Z,98991.20
2018-03-16T22:16:46.863Z,98989.34
2018-03-16T22:19:14.360Z,98991.27
2018-03-16T22:21:41.923Z,98986.94
2018-03-16T22:24:10.780Z,98991.52
2018-03-16T22:26:38.312Z,98990.23
2018-03-16T22:29:05.795Z,98988.69
2018-03-16T22:31:33.967Z,98987.49
2018-03-16T22:34:01.451Z,98985.94
2018-03-16T22:36:28.976Z,98988.06
2018-03-16T22:38:56.471Z,98987.23
2018-03-16T22:41:24.288Z,98975.98
2018-03-16T22:43:51.776Z,98976.44
2018-03-16T22:46:19.667Z,98974.32
2018-03-16T22:48:47.207Z,98977.52
2018-03-16T22:51:14.719Z,98973.56
2018-03-16T22:53:42.220Z,98975.78
2018-03-16T22:56:10.622Z,98982.34
2018-03-16T22:58:38.438Z,98983.46
2018-03-16T23:01:06.842Z,98979.39
2018-03-16T23:03:35.332Z,98976.52
2018-03-16T23:06:02.883Z,98976.08
2018-03-16T23:08:30.393Z,98972.58
2018-03-16T23:10:58.831Z,98971.55
2018-03-16T23:13:27.093Z,98976.75
2018-03-16T23:15:54.584Z,98971.70
2018-03-16T23:18:22.043Z,98968.70
2018-03-16T23:20:49.523Z,98973.27
2018-03-16T23:23:17.383Z,98968.44
2018-03-16T23:25:44.892Z,98966.00
2018-03-16T23:28:12.349Z,98973.80
2018-03-16T23:30:43.721Z,98971.09
2018-03-16T23:33:11.426Z,98968.25
2018-03-16T23:35:40.215Z,98980.95
2018-03-16T23:38:08.061Z,98981.61
2018-03-16T23:40:35.574Z,98977.26
2018-03-16T23:43:04.073Z,98968.34
2018-03-16T23:45:31.597Z,98975.18
2018-03-16T23:47:59.190Z,98974.44
2018-03-16T23:50:26.891Z,98981.77
2018-03-16T23:52:54.367Z,98980.02
2018-03-16T23:55:21.836Z,98979.96
2018-03-16T23:57:49.602Z,98979.28
